Aviation Digital Data Service (ADDS)

Output produced by METARs form (0642 UTC 27 March 2017)
found at http://www.aviationweather.gov/adds/metars/
 
TAF TTPP 270400Z 2706/2806 11005KT 9999 FEW018 
     BECMG 2711/2713 11015G25KT SCT025 
     BECMG 2800/2802 11005KT FEW018
       
TAF TTCP 270400Z 2706/2806 11005KT 9999 FEW018 
     BECMG 2711/2713 11015G25KT SCT020 
     BECMG 2800/2802 11005KT FEW018